Flight Number: EUR3054 Duration: 10:00
Departure: Amsterdam Schiphol (EHAM) at 07:30 Distance: 4322 Nm
Arrival: Salt Lake City Intl Airport (KSLC) at 17:30 Equipment: B747

Weather Information
Amsterdam Airport Schiphol, Netherlands (EHAM) 52-18N 004-46E -2M Aug 17, 2018 - 04:55 PM EDT / 2018.08.17 2055 UTC
Wind: from the SSW (210 degrees) at 8 MPH (7 KT):0
Visibility: greater than 7 mile(s):0 Temperature: 59 F (15 C) Dew Point: 53 F (12 C) Relative Humidity: 82% Pressure (altimeter): 30.12 in. Hg (1020 hPa)
ob: EHAM 172055Z 21007KT CAVOK 15/12 Q1020 NOSIG cycle: 21
Sunrise: 04:32 Sunset: 18:57 (UTC)

SALT LAKE CITY INTERNATIONAL AIRPORT , UT, United States (KSLC) 40-47N 111-58W 1286M Aug 17, 2018 - 04:54 PM EDT / 2018.08.17 2054 UTC
Wind: from the WNW (290 degrees) at 8 MPH (7 KT):0
Visibility: 10 mile(s):0
Sky conditions: mostly cloudy Weather: Cumulonimbus clouds, towering cumulus clouds observed Temperature: 93.0 F (33.9 C) Dew Point: 41.0 F (5.0 C) Relative Humidity: 16% Pressure (altimeter): 30.13 in. Hg (1020 hPa) Pressure tendency: 0.05 inches (1.7 hPa) lower than three hours ago
ob: KSLC 172054Z 29007KT 10SM FEW090TCU BKN140 BKN240 34/05 A3013 RMK AO2 SLP140 VIRGA CB DSNT S AND NW TCU SW AND DSNT NE AND SE T03390050 58017 cycle: 21
Sunrise: 12:44 Sunset: 02:19 (UTC)

TAF:2018/08/17 18:42 TAF KSLC 171739Z 1718/1824 15004KT P6SM FEW120 SCT200 FM171830 33010KT P6SM FEW100 SCT150 FM180200 34012G19KT P6SM -SHRA VCTS SCT080CB BKN100 FM180500 34010KT P6SM VCSH SCT080 BKN100 FM180800 16005KT P6SM SCT100 BKN180

Previous Pireps for this route
Date Aircraft Flight time Fuel used Landing rate On time
2015-01-27B74710.37206753-232Charter
2016-10-22B74710,07198276-194Yes
(pireps marked green are flown by you)

Route map